createdAt,value
2022-12-01T00:00:58.722Z,47.45
2022-12-01T00:06:01.962Z,48.78
2022-12-01T00:11:12.108Z,47.63
2022-12-01T00:16:16.329Z,48.72
2022-12-01T00:21:20.315Z,47.85
2022-12-01T00:26:22.468Z,48.08
2022-12-01T00:31:24.751Z,49.13
2022-12-01T00:36:26.252Z,48.88
2022-12-01T00:41:27.755Z,46.72
2022-12-01T00:46:29.477Z,48.45
2022-12-01T00:51:31.125Z,47.35
2022-12-01T00:56:32.626Z,48.85
2022-12-01T01:01:35.136Z,49.25
2022-12-01T01:06:37.822Z,48.40
2022-12-01T01:11:39.667Z,48.63
2022-12-01T01:16:41.259Z,47.50
2022-12-01T01:21:42.785Z,49.22
2022-12-01T01:26:44.468Z,49.45
2022-12-01T01:31:45.939Z,47.78
2022-12-01T01:36:47.410Z,48.35
2022-12-01T01:41:48.963Z,48.22
2022-12-01T01:46:50.796Z,46.50
2022-12-01T01:51:53.845Z,46.17
2022-12-01T01:56:59.939Z,46.72
2022-12-01T02:02:08.488Z,45.22
2022-12-01T02:07:12.752Z,46.22
2022-12-01T02:12:39.666Z,44.60
2022-12-01T02:17:50.190Z,47.75
2022-12-01T02:23:10.453Z,48.92
2022-12-01T02:28:51.074Z,47.55
2022-12-01T02:34:18.766Z,46.97
2022-12-01T02:39:35.405Z,46.83
2022-12-01T02:44:41.792Z,49.70
2022-12-01T02:49:49.523Z,48.80
2022-12-01T02:54:53.049Z,47.90
2022-12-01T02:59:55.989Z,48.55
2022-12-01T03:05:10.023Z,46.22
2022-12-01T03:10:24.171Z,49.47
2022-12-01T03:15:48.127Z,49.30
2022-12-01T03:21:05.450Z,48.40
2022-12-01T03:26:11.659Z,47.63
2022-12-01T03:31:18.323Z,50.30
2022-12-01T03:36:27.035Z,47.35
2022-12-01T03:41:38.183Z,48.33
2022-12-01T03:46:50.220Z,47.10
2022-12-01T03:52:29.028Z,47.60
2022-12-01T03:57:36.130Z,45.17
2022-12-01T04:02:38.138Z,47.60
2022-12-01T04:07:40.123Z,46.85
2022-12-01T04:12:41.649Z,45.85
2022-12-01T04:17:44.473Z,47.65
2022-12-01T04:22:46.071Z,47.00
2022-12-01T04:27:47.670Z,46.10
2022-12-01T04:32:49.136Z,45.72
2022-12-01T04:37:50.597Z,48.53
2022-12-01T04:42:52.092Z,48.70
2022-12-01T04:47:53.545Z,47.63
2022-12-01T04:52:55.111Z,49.38
2022-12-01T04:57:56.572Z,47.10
2022-12-01T05:02:59.180Z,48.28
2022-12-01T05:08:00.826Z,48.15
2022-12-01T05:13:03.522Z,48.58
2022-12-01T05:18:06.053Z,47.65
2022-12-01T05:23:10.809Z,49.00
2022-12-01T05:28:15.193Z,48.30
2022-12-01T05:33:16.996Z,48.60
2022-12-01T05:38:19.182Z,48.22
2022-12-01T05:43:28.369Z,48.70
2022-12-01T05:48:31.173Z,48.20
2022-12-01T05:53:32.792Z,48.10
2022-12-01T05:58:35.154Z,47.63
2022-12-01T06:03:36.727Z,48.05
2022-12-01T06:08:38.277Z,49.05
2022-12-01T06:13:39.761Z,46.60
2022-12-01T06:18:41.276Z,48.58
2022-12-01T06:23:42.838Z,48.78
2022-12-01T06:28:44.297Z,48.70
2022-12-01T06:33:45.806Z,48.35
2022-12-01T06:38:47.331Z,48.85
2022-12-01T06:43:48.822Z,47.58
2022-12-01T06:48:50.480Z,49.15
2022-12-01T06:53:55.171Z,46.92
2022-12-01T06:58:57.323Z,46.95
2022-12-01T07:03:59.202Z,48.88
2022-12-01T07:09:00.709Z,49.67
2022-12-01T07:14:02.583Z,50.20
2022-12-01T07:19:04.105Z,49.97
2022-12-01T07:24:05.937Z,50.22
2022-12-01T07:29:08.740Z,50.97
2022-12-01T07:34:13.183Z,50.00
2022-12-01T07:39:14.702Z,51.63
2022-12-01T07:44:16.234Z,88.13
2022-12-01T07:49:17.833Z,66.63
2022-12-01T07:54:21.216Z,61.58
2022-12-01T07:59:22.777Z,61.00
2022-12-01T08:04:24.352Z,55.90
2022-12-01T08:09:25.932Z,53.78
2022-12-01T08:14:27.405Z,49.05
2022-12-01T08:19:29.342Z,49.83
2022-12-01T08:24:30.844Z,49.47
2022-12-01T08:29:32.362Z,49.67
2022-12-01T08:34:38.288Z,51.28
2022-12-01T08:39:39.737Z,49.17
2022-12-01T08:44:41.238Z,55.22
2022-12-01T08:49:42.771Z,53.03
2022-12-01T08:54:44.200Z,51.67
2022-12-01T08:59:45.697Z,49.13
2022-12-01T09:04:47.151Z,48.92
2022-12-01T09:09:48.971Z,47.15
2022-12-01T09:14:50.752Z,44.08
2022-12-01T09:19:52.406Z,46.58
2022-12-01T09:24:53.981Z,44.60
2022-12-01T09:29:55.440Z,45.47
2022-12-01T09:34:56.972Z,44.17
2022-12-01T09:39:58.429Z,45.65
2022-12-01T09:45:02.722Z,43.42
2022-12-01T09:50:23.949Z,42.53
2022-12-01T09:55:26.464Z,44.28
2022-12-01T10:00:33.165Z,41.15
2022-12-01T10:06:18.064Z,39.70
2022-12-01T10:11:24.557Z,34.35
2022-12-01T10:16:40.711Z,32.00
2022-12-01T10:22:13.137Z,31.67
2022-12-01T10:27:51.470Z,29.52
2022-12-01T10:32:58.873Z,27.70
2022-12-01T10:38:04.037Z,27.60
2022-12-01T10:43:05.585Z,26.15
2022-12-01T10:48:21.778Z,22.33
2022-12-01T10:53:23.250Z,22.33
2022-12-01T10:58:25.868Z,21.38
2022-12-01T11:03:33.500Z,21.05
2022-12-01T11:08:50.725Z,21.48
2022-12-01T11:13:53.014Z,21.88
2022-12-01T11:19:21.773Z,19.02
2022-12-01T11:24:55.482Z,20.80
2022-12-01T11:30:20.190Z,17.48
2022-12-01T11:35:25.441Z,19.70
2022-12-01T11:40:30.444Z,17.75
2022-12-01T11:45:40.032Z,19.17
2022-12-01T11:50:43.552Z,18.58
2022-12-01T11:55:45.050Z,18.63
2022-12-01T12:00:53.747Z,18.05
2022-12-01T12:06:39.845Z,20.15
2022-12-01T12:12:15.678Z,19.00
2022-12-01T12:17:26.480Z,18.88
2022-12-01T12:22:37.911Z,20.60
2022-12-01T12:28:08.584Z,18.20
2022-12-01T12:33:18.142Z,21.15
2022-12-01T12:38:28.791Z,21.35
2022-12-01T12:43:44.669Z,24.70
2022-12-01T12:49:19.753Z,22.63
2022-12-01T12:54:30.499Z,21.77
2022-12-01T12:59:31.914Z,21.83
2022-12-01T13:04:39.505Z,23.08
2022-12-01T13:09:46.101Z,22.83
2022-12-01T13:15:00.841Z,26.48
2022-12-01T13:20:04.358Z,24.20
2022-12-01T13:25:06.342Z,23.15
2022-12-01T13:30:21.271Z,23.00
2022-12-01T13:35:29.980Z,23.60
2022-12-01T13:40:31.530Z,21.48
2022-12-01T13:45:36.609Z,22.05
2022-12-01T13:50:53.648Z,22.02
2022-12-01T13:56:04.155Z,21.67
2022-12-01T14:01:25.935Z,21.42
2022-12-01T14:06:48.912Z,19.85
2022-12-01T14:12:16.555Z,18.80
2022-12-01T14:17:28.518Z,19.03
2022-12-01T14:22:35.120Z,26.15
2022-12-01T14:27:43.700Z,17.67
2022-12-01T14:32:45.163Z,18.25
2022-12-01T14:37:49.679Z,16.15
2022-12-01T14:43:14.015Z,15.43
2022-12-01T14:48:34.643Z,15.00
2022-12-01T14:53:40.756Z,14.63
2022-12-01T14:58:59.705Z,14.50
2022-12-01T15:04:03.673Z,14.52
2022-12-01T15:09:32.953Z,14.32
2022-12-01T15:14:47.374Z,14.97
2022-12-01T15:19:49.115Z,14.30
2022-12-01T15:24:51.607Z,14.07
2022-12-01T15:29:54.558Z,16.92
2022-12-01T15:34:56.854Z,15.15
2022-12-01T15:40:54.012Z,14.40
2022-12-01T15:45:25.409Z,15.40
2022-12-01T15:50:26.964Z,13.93
2022-12-01T15:55:31.923Z,15.00
2022-12-01T16:00:33.727Z,17.05
2022-12-01T16:05:36.276Z,17.17
2022-12-01T16:10:37.733Z,15.93
2022-12-01T16:15:44.943Z,14.18
2022-12-01T16:25:48.519Z,15.50
2022-12-01T16:30:51.925Z,15.88
2022-12-01T16:35:54.581Z,15.45
2022-12-01T16:40:59.062Z,14.23
2022-12-01T16:46:03.911Z,14.55
2022-12-01T16:51:07.747Z,15.43
2022-12-01T16:56:12.875Z,16.75
2022-12-01T17:01:14.462Z,50.83
2022-12-01T17:06:20.371Z,27.42
2022-12-01T17:11:21.885Z,16.52
2022-12-01T17:16:23.470Z,17.33
2022-12-01T17:21:25.066Z,18.63
2022-12-01T17:26:26.500Z,19.95
2022-12-01T17:31:28.112Z,18.48
2022-12-01T17:36:31.231Z,27.52
2022-12-01T17:41:35.715Z,20.98
2022-12-01T17:46:38.501Z,20.85
2022-12-01T17:51:40.926Z,32.42
2022-12-01T17:56:42.789Z,19.30
2022-12-01T18:01:44.459Z,19.08
2022-12-01T18:06:49.316Z,19.13
2022-12-01T18:11:58.759Z,18.85
2022-12-01T18:17:00.333Z,18.33
2022-12-01T18:22:01.822Z,18.15
2022-12-01T18:27:03.332Z,18.23
2022-12-01T18:32:05.195Z,19.80
2022-12-01T18:37:06.781Z,22.75
2022-12-01T18:42:08.318Z,23.45
2022-12-01T18:47:10.219Z,26.63
2022-12-01T18:52:11.760Z,29.00
2022-12-01T18:57:14.633Z,28.45
2022-12-01T19:02:16.261Z,32.28
2022-12-01T19:07:17.736Z,38.40
2022-12-01T19:12:19.274Z,32.40
2022-12-01T19:17:20.754Z,33.00
2022-12-01T19:22:22.245Z,33.38
2022-12-01T19:27:23.793Z,34.72
2022-12-01T19:32:25.696Z,35.85
2022-12-01T19:37:27.242Z,35.25
2022-12-01T19:42:30.135Z,37.90
2022-12-01T19:47:32.996Z,39.10
2022-12-01T19:52:36.043Z,40.53
2022-12-01T19:57:37.512Z,39.72
2022-12-01T20:02:39.075Z,38.58
2022-12-01T20:07:40.552Z,40.53
2022-12-01T20:12:42.108Z,40.78
2022-12-01T20:17:43.630Z,40.80
2022-12-01T20:22:45.092Z,41.05
2022-12-01T20:27:46.543Z,41.88
2022-12-01T20:32:47.995Z,43.28
2022-12-01T20:37:49.466Z,41.25
2022-12-01T20:42:50.938Z,44.55
2022-12-01T20:47:52.801Z,47.20
2022-12-01T20:52:54.309Z,44.78
2022-12-01T20:57:55.799Z,44.90
2022-12-01T21:02:57.564Z,46.15
2022-12-01T21:08:00.900Z,46.97
2022-12-01T21:13:33.803Z,46.88
2022-12-01T21:18:51.994Z,47.45
2022-12-01T21:24:16.664Z,47.22
2022-12-01T21:29:27.389Z,48.58
2022-12-01T21:34:29.291Z,48.88
2022-12-01T21:39:30.802Z,48.15
2022-12-01T21:44:36.771Z,47.95
2022-12-01T21:49:39.651Z,46.60
2022-12-01T21:54:41.223Z,48.80
2022-12-01T21:59:42.678Z,47.60
2022-12-01T22:04:44.183Z,48.83
2022-12-01T22:09:45.833Z,46.30
2022-12-01T22:14:53.598Z,47.63
2022-12-01T22:25:01.868Z,45.88
2022-12-01T22:30:06.001Z,46.15
2022-12-01T22:35:22.058Z,44.75
2022-12-01T22:41:02.137Z,45.30
2022-12-01T22:46:22.540Z,47.30
2022-12-01T22:51:30.742Z,46.08
2022-12-01T22:56:45.343Z,46.05
2022-12-01T23:01:48.532Z,46.05
2022-12-01T23:06:58.275Z,45.72
2022-12-01T23:12:11.720Z,47.15
2022-12-01T23:17:25.710Z,47.55
2022-12-01T23:22:27.168Z,47.42
2022-12-01T23:27:28.633Z,48.22
2022-12-01T23:32:30.066Z,48.13
2022-12-01T23:37:37.824Z,49.05
2022-12-01T23:47:40.934Z,46.53
2022-12-01T23:52:42.444Z,48.80
2022-12-01T23:57:43.937Z,47.60
